createdAt,value
2019-02-03T00:00:29.943Z,20.10
2019-02-03T00:01:29.969Z,18.90
2019-02-03T00:02:29.992Z,19.20
2019-02-03T00:03:30.021Z,19.10
2019-02-03T00:04:30.047Z,19.50
2019-02-03T00:05:30.073Z,19.90
2019-02-03T00:06:30.098Z,20.10
2019-02-03T00:07:30.123Z,19.80
2019-02-03T00:08:30.150Z,19.70
2019-02-03T00:09:30.182Z,19.30
2019-02-03T00:10:30.203Z,19.80
2019-02-03T00:11:30.232Z,19.40
2019-02-03T00:12:30.257Z,20.40
2019-02-03T00:13:31.241Z,20.90
2019-02-03T00:14:30.308Z,20.10
2019-02-03T00:15:30.334Z,20.90
2019-02-03T00:16:30.360Z,20.20
2019-02-03T00:17:30.388Z,20.50
2019-02-03T00:18:30.412Z,19.20
2019-02-03T00:19:30.437Z,21.10
2019-02-03T00:20:30.467Z,19.90
2019-02-03T00:21:30.492Z,20.30
2019-02-03T00:22:30.517Z,18.80
2019-02-03T00:23:30.544Z,18.90
2019-02-03T00:24:30.571Z,18.70
2019-02-03T00:25:30.597Z,19.00
2019-02-03T00:26:30.622Z,19.00
2019-02-03T00:27:30.648Z,20.30
2019-02-03T00:28:30.676Z,20.00
2019-02-03T00:29:30.701Z,19.50
2019-02-03T00:30:30.728Z,21.50
2019-02-03T00:31:30.754Z,20.80
2019-02-03T00:32:30.779Z,21.50
2019-02-03T00:33:30.808Z,21.30
2019-02-03T00:34:30.832Z,22.00
2019-02-03T00:35:30.859Z,20.70
2019-02-03T00:36:30.885Z,21.70
2019-02-03T00:37:30.929Z,22.20
2019-02-03T00:38:30.998Z,22.40
2019-02-03T00:39:30.967Z,22.20
2019-02-03T00:40:31.030Z,20.60
2019-02-03T00:41:31.108Z,21.50
2019-02-03T00:42:31.041Z,22.00
2019-02-03T00:43:31.070Z,22.60
2019-02-03T00:44:31.094Z,21.70
2019-02-03T00:45:31.121Z,22.70
2019-02-03T00:46:31.146Z,22.80
2019-02-03T00:47:31.173Z,22.20
2019-02-03T00:48:31.199Z,22.50
2019-02-03T00:49:31.227Z,21.10
2019-02-03T00:50:31.252Z,22.90
2019-02-03T00:51:31.279Z,22.40
2019-02-03T00:52:31.305Z,21.60
2019-02-03T00:53:31.337Z,22.90
2019-02-03T00:54:31.357Z,23.00
2019-02-03T00:55:31.384Z,23.50
2019-02-03T00:56:31.410Z,24.00
2019-02-03T00:57:32.401Z,23.60
2019-02-03T00:58:31.460Z,24.20
2019-02-03T00:59:31.488Z,24.30
2019-02-03T01:00:31.513Z,22.70
2019-02-03T01:01:31.540Z,23.40
2019-02-03T01:02:31.565Z,23.10
2019-02-03T01:03:31.593Z,22.90
2019-02-03T01:04:31.623Z,22.70
2019-02-03T01:05:31.644Z,22.70
2019-02-03T01:06:31.669Z,22.00
2019-02-03T01:07:31.698Z,22.30
2019-02-03T01:08:31.723Z,23.20
2019-02-03T01:09:33.746Z,21.70
2019-02-03T01:10:31.775Z,23.60
2019-02-03T01:11:31.801Z,23.50
2019-02-03T01:12:31.828Z,23.50
2019-02-03T01:13:31.855Z,23.90
2019-02-03T01:14:31.880Z,22.30
2019-02-03T01:15:32.376Z,23.50
2019-02-03T01:16:31.935Z,23.30
2019-02-03T01:17:31.959Z,22.60
2019-02-03T01:18:31.987Z,22.20
2019-02-03T01:19:32.012Z,23.40
2019-02-03T01:20:32.037Z,23.20
2019-02-03T01:21:32.067Z,23.00
2019-02-03T01:22:32.093Z,23.80
2019-02-03T01:23:32.115Z,22.40
2019-02-03T01:24:32.142Z,21.50
2019-02-03T01:25:32.169Z,22.30
2019-02-03T01:26:32.195Z,22.20
2019-02-03T01:27:32.221Z,23.20
2019-02-03T01:28:32.246Z,21.20
2019-02-03T01:29:32.273Z,21.50
2019-02-03T01:30:32.298Z,21.00
2019-02-03T01:31:32.327Z,21.60
2019-02-03T01:32:32.352Z,22.40
2019-02-03T01:33:32.428Z,20.30
2019-02-03T01:34:32.404Z,19.70
2019-02-03T01:35:32.429Z,20.80
2019-02-03T01:36:32.461Z,20.70
2019-02-03T01:37:39.451Z,20.90
2019-02-03T01:38:32.551Z,22.00
2019-02-03T01:39:32.533Z,22.00
2019-02-03T01:40:32.561Z,22.10
2019-02-03T01:41:32.586Z,22.70
2019-02-03T01:42:32.611Z,22.60
2019-02-03T01:43:32.637Z,23.10
2019-02-03T01:44:32.663Z,23.40
2019-02-03T01:45:32.689Z,23.80
2019-02-03T01:46:32.714Z,24.40
2019-02-03T01:47:32.742Z,25.10
2019-02-03T01:48:32.767Z,23.40
2019-02-03T01:49:32.794Z,24.90
2019-02-03T01:50:32.818Z,25.80
2019-02-03T01:51:32.845Z,22.80
2019-02-03T01:52:32.870Z,24.30
2019-02-03T01:53:32.902Z,24.20
2019-02-03T01:54:32.921Z,25.50
2019-02-03T01:55:32.946Z,24.80
2019-02-03T01:56:32.976Z,25.00
2019-02-03T01:57:32.998Z,26.20
2019-02-03T01:58:33.024Z,25.00
2019-02-03T01:59:33.049Z,25.60
2019-02-03T02:00:33.076Z,25.70
2019-02-03T02:01:33.101Z,25.90
2019-02-03T02:02:33.127Z,26.00
2019-02-03T02:03:33.154Z,26.70
2019-02-03T02:04:33.180Z,26.30
2019-02-03T02:05:33.206Z,25.30
2019-02-03T02:06:33.229Z,26.10
2019-02-03T02:07:33.255Z,27.60
2019-02-03T02:08:33.281Z,25.60
2019-02-03T02:09:33.306Z,26.50
2019-02-03T02:10:33.331Z,28.20
2019-02-03T02:11:33.361Z,27.20
2019-02-03T02:12:33.383Z,28.50
2019-02-03T02:13:33.408Z,29.60
2019-02-03T02:14:33.434Z,26.90
2019-02-03T02:15:33.460Z,28.20
2019-02-03T02:16:33.487Z,28.70
2019-02-03T02:17:33.511Z,27.90
2019-02-03T02:18:33.535Z,28.90
2019-02-03T02:19:33.565Z,28.20
2019-02-03T02:20:33.587Z,28.00
2019-02-03T02:21:33.614Z,27.80
2019-02-03T02:22:33.637Z,28.70
2019-02-03T02:23:33.669Z,29.00
2019-02-03T02:24:33.688Z,29.50
2019-02-03T02:25:33.715Z,29.20
2019-02-03T02:26:33.738Z,28.10
2019-02-03T02:27:33.765Z,26.30
2019-02-03T02:28:33.790Z,27.20
2019-02-03T02:29:33.815Z,25.80
2019-02-03T02:30:33.843Z,25.00
2019-02-03T02:31:33.868Z,25.70
2019-02-03T02:32:33.892Z,23.80
2019-02-03T02:33:33.918Z,24.10
2019-02-03T02:34:33.943Z,24.50
2019-02-03T02:35:33.994Z,21.50
2019-02-03T02:36:33.994Z,21.30
2019-02-03T02:37:34.021Z,23.30
2019-02-03T02:38:34.044Z,25.70
2019-02-03T02:39:35.435Z,24.60
2019-02-03T02:40:34.094Z,23.50
2019-02-03T02:41:34.121Z,23.80
2019-02-03T02:42:34.145Z,23.10
2019-02-03T02:43:34.420Z,23.70
2019-02-03T02:44:34.196Z,23.00
2019-02-03T02:45:34.223Z,24.80
2019-02-03T02:46:34.247Z,23.10
2019-02-03T02:47:34.271Z,25.30
2019-02-03T02:48:34.297Z,23.30
2019-02-03T02:49:34.321Z,24.10
2019-02-03T02:50:34.346Z,22.90
2019-02-03T02:51:34.373Z,24.30
2019-02-03T02:52:34.398Z,22.70
2019-02-03T02:53:34.438Z,22.30
2019-02-03T02:54:34.448Z,21.90
2019-02-03T02:55:34.476Z,19.20
2019-02-03T02:56:34.500Z,19.90
2019-02-03T02:57:34.525Z,21.20
2019-02-03T02:58:34.548Z,22.00
2019-02-03T02:59:34.577Z,22.40
2019-02-03T03:00:34.607Z,23.70
2019-02-03T03:01:34.628Z,21.70
2019-02-03T03:02:34.653Z,24.30
2019-02-03T03:03:34.677Z,21.20
2019-02-03T03:04:34.702Z,23.80
2019-02-03T03:05:34.728Z,21.50
2019-02-03T03:06:34.755Z,20.40
2019-02-03T03:07:34.777Z,18.90
2019-02-03T03:08:34.821Z,20.10
2019-02-03T03:09:34.828Z,21.00
2019-02-03T03:10:34.852Z,18.90
2019-02-03T03:11:34.878Z,16.80
2019-02-03T03:12:34.904Z,17.00
2019-02-03T03:13:34.931Z,15.40
2019-02-03T03:14:34.957Z,13.50
2019-02-03T03:15:34.980Z,14.00
2019-02-03T03:16:35.124Z,14.10
2019-02-03T03:17:35.033Z,13.80
2019-02-03T03:18:35.055Z,12.60
2019-02-03T03:19:35.082Z,13.20
2019-02-03T03:20:35.105Z,11.60
2019-02-03T03:21:35.132Z,12.00
2019-02-03T03:22:35.159Z,12.80
2019-02-03T03:23:35.181Z,13.70
2019-02-03T03:24:35.213Z,14.50
2019-02-03T03:25:35.234Z,13.50
2019-02-03T03:26:35.256Z,15.20
2019-02-03T03:27:35.284Z,14.80
2019-02-03T03:28:35.307Z,17.20
2019-02-03T03:29:35.332Z,16.70
2019-02-03T03:30:35.358Z,19.90
2019-02-03T03:31:35.383Z,20.30
2019-02-03T03:32:35.409Z,20.70
2019-02-03T03:33:35.433Z,23.00
2019-02-03T03:34:35.459Z,24.60
2019-02-03T03:35:35.482Z,25.10
2019-02-03T03:36:35.507Z,27.60
2019-02-03T03:37:35.532Z,28.00
2019-02-03T03:38:35.557Z,29.30
2019-02-03T03:39:35.582Z,29.40
2019-02-03T03:40:35.609Z,31.50
2019-02-03T03:41:35.632Z,31.70
2019-02-03T03:42:35.659Z,30.10
2019-02-03T03:43:35.681Z,32.20
2019-02-03T03:44:35.706Z,33.70
2019-02-03T03:45:35.730Z,32.20
2019-02-03T03:46:35.761Z,34.00
2019-02-03T03:47:35.781Z,33.50
2019-02-03T03:48:35.815Z,34.20
2019-02-03T03:49:35.833Z,35.00
2019-02-03T03:50:35.856Z,32.80
2019-02-03T03:51:35.882Z,30.90
2019-02-03T03:52:39.248Z,27.00
2019-02-03T03:53:35.937Z,25.20
2019-02-03T03:54:35.966Z,20.80
2019-02-03T03:55:35.981Z,22.60
2019-02-03T03:56:36.005Z,22.10
2019-02-03T03:57:36.031Z,22.50
2019-02-03T03:58:36.056Z,22.20
2019-02-03T03:59:36.082Z,23.50
2019-02-03T04:00:36.105Z,26.80
2019-02-03T04:01:36.133Z,29.20
2019-02-03T04:02:36.157Z,31.20
2019-02-03T04:03:36.180Z,31.50
2019-02-03T04:04:36.206Z,31.20
2019-02-03T04:05:36.231Z,31.70
2019-02-03T04:06:36.259Z,32.00
2019-02-03T04:07:36.298Z,31.40
2019-02-03T04:08:44.622Z,30.30
2019-02-03T04:09:36.329Z,27.60
2019-02-03T04:10:36.354Z,27.60
2019-02-03T04:11:36.379Z,26.60
2019-02-03T04:12:36.407Z,25.60
2019-02-03T04:13:36.436Z,24.80
2019-02-03T04:14:36.454Z,23.50
2019-02-03T04:15:36.481Z,23.90
2019-02-03T04:16:36.504Z,22.40
2019-02-03T04:17:36.527Z,24.70
2019-02-03T04:18:36.553Z,23.60
2019-02-03T04:19:36.577Z,22.40
2019-02-03T04:20:36.602Z,21.00
2019-02-03T04:21:36.628Z,22.30
2019-02-03T04:22:36.654Z,22.70
2019-02-03T04:23:36.678Z,22.70
2019-02-03T04:24:36.701Z,22.60
2019-02-03T04:25:36.726Z,21.90
2019-02-03T04:26:36.762Z,21.70
2019-02-03T04:27:36.776Z,21.50
2019-02-03T04:28:36.801Z,22.70
2019-02-03T04:29:36.826Z,19.10
2019-02-03T04:30:36.852Z,17.80
2019-02-03T04:31:36.877Z,16.60
2019-02-03T04:32:36.899Z,16.60
2019-02-03T04:33:36.925Z,17.90
2019-02-03T04:34:36.948Z,17.00
2019-02-03T04:35:36.974Z,17.40
2019-02-03T04:36:37.001Z,16.30
2019-02-03T04:37:37.023Z,16.50
2019-02-03T04:38:37.052Z,17.40
2019-02-03T04:39:37.072Z,16.90
2019-02-03T04:40:37.099Z,14.30
2019-02-03T04:41:37.123Z,10.10
2019-02-03T04:42:37.149Z,9.90
2019-02-03T04:43:37.173Z,9.90
2019-02-03T04:44:38.112Z,8.80
2019-02-03T04:45:37.222Z,9.20
2019-02-03T04:46:37.245Z,8.20
2019-02-03T04:47:37.273Z,8.70
2019-02-03T04:48:37.349Z,8.80
2019-02-03T04:49:37.321Z,7.80
2019-02-03T04:50:37.352Z,8.90
2019-02-03T04:51:37.371Z,7.40
2019-02-03T04:52:37.406Z,7.50
2019-02-03T04:53:37.420Z,7.00
2019-02-03T04:54:37.443Z,7.00
2019-02-03T04:55:37.469Z,7.50
2019-02-03T04:56:37.495Z,6.70
2019-02-03T04:57:37.523Z,6.60
2019-02-03T04:58:37.548Z,6.10
2019-02-03T04:59:37.570Z,6.90
2019-02-03T05:00:37.595Z,6.80
2019-02-03T05:01:37.619Z,5.50
2019-02-03T05:02:37.641Z,5.20
2019-02-03T05:03:37.666Z,5.60
2019-02-03T05:04:37.693Z,5.50
2019-02-03T05:05:37.718Z,5.90
2019-02-03T05:06:37.766Z,5.90
2019-02-03T05:07:37.766Z,6.60
2019-02-03T05:08:37.791Z,6.30
2019-02-03T05:09:37.817Z,5.90
2019-02-03T05:10:37.839Z,5.60
2019-02-03T05:11:37.866Z,6.80
2019-02-03T05:12:37.890Z,6.20
2019-02-03T05:13:37.915Z,6.20
2019-02-03T05:14:37.941Z,5.80
2019-02-03T05:15:37.963Z,6.40
2019-02-03T05:16:37.989Z,6.50
2019-02-03T05:17:38.013Z,7.00
2019-02-03T05:18:38.039Z,6.70
2019-02-03T05:19:38.062Z,6.30
2019-02-03T05:20:38.088Z,6.30
2019-02-03T05:21:38.163Z,7.30
2019-02-03T05:22:38.138Z,6.80
2019-02-03T05:23:38.161Z,7.00
2019-02-03T05:24:38.185Z,6.90
2019-02-03T05:25:38.212Z,7.00
2019-02-03T05:26:38.234Z,7.10
2019-02-03T05:27:38.260Z,6.50
2019-02-03T05:28:38.284Z,6.50
2019-02-03T05:29:38.308Z,6.30
2019-02-03T05:30:38.333Z,6.60
2019-02-03T05:31:38.359Z,6.30
2019-02-03T05:32:38.382Z,6.50
2019-02-03T05:33:38.406Z,6.10
2019-02-03T05:34:38.431Z,6.30
2019-02-03T05:35:38.457Z,7.00
2019-02-03T05:36:38.480Z,7.10
2019-02-03T05:37:38.507Z,8.20
2019-02-03T05:38:38.529Z,8.20
2019-02-03T05:39:38.599Z,7.80
2019-02-03T05:40:38.580Z,8.60
2019-02-03T05:41:38.602Z,7.80
2019-02-03T05:42:38.645Z,7.90
2019-02-03T05:43:38.669Z,7.00
2019-02-03T05:44:38.678Z,7.80
2019-02-03T05:45:38.704Z,8.20
2019-02-03T05:46:38.725Z,7.70
2019-02-03T05:47:38.751Z,7.70
2019-02-03T05:48:38.777Z,7.80
2019-02-03T05:49:38.801Z,7.70
2019-02-03T05:50:38.824Z,8.30
2019-02-03T05:51:38.848Z,7.60
2019-02-03T05:52:38.871Z,8.30
2019-02-03T05:53:38.898Z,8.50
2019-02-03T05:54:38.922Z,8.00
2019-02-03T05:55:38.946Z,8.40
2019-02-03T05:56:38.972Z,8.10
2019-02-03T05:57:38.997Z,8.10
2019-02-03T05:58:39.019Z,9.50
2019-02-03T05:59:39.056Z,9.10
2019-02-03T06:00:39.069Z,8.90
2019-02-03T06:01:39.117Z,9.90
2019-02-03T06:02:39.118Z,8.70
2019-02-03T06:03:39.146Z,8.50
2019-02-03T06:04:39.168Z,8.90
2019-02-03T06:05:39.192Z,8.90
2019-02-03T06:06:39.216Z,10.00
2019-02-03T06:07:39.240Z,9.20
2019-02-03T06:08:39.267Z,8.90
2019-02-03T06:09:39.291Z,9.10
2019-02-03T06:10:39.314Z,8.90
2019-02-03T06:11:39.407Z,8.50
2019-02-03T06:12:39.364Z,9.50
2019-02-03T06:13:39.389Z,8.80
2019-02-03T06:14:39.413Z,8.90
2019-02-03T06:15:39.437Z,10.00
2019-02-03T06:16:39.466Z,9.90
2019-02-03T06:17:39.492Z,10.50
2019-02-03T06:18:39.509Z,9.80
2019-02-03T06:19:39.538Z,10.60
2019-02-03T06:20:39.561Z,10.50
2019-02-03T06:21:39.585Z,10.50
2019-02-03T06:22:39.609Z,10.60
2019-02-03T06:23:39.634Z,10.20
2019-02-03T06:24:39.658Z,10.10
2019-02-03T06:25:39.818Z,10.40
2019-02-03T06:26:39.720Z,10.60
2019-02-03T06:27:39.733Z,10.40
2019-02-03T06:28:39.756Z,9.80
2019-02-03T06:29:39.781Z,11.00
2019-02-03T06:30:39.808Z,9.80
2019-02-03T06:31:39.833Z,9.70
2019-02-03T06:32:39.855Z,10.60
2019-02-03T06:33:39.881Z,10.30
2019-02-03T06:34:39.905Z,11.00
2019-02-03T06:35:39.933Z,10.40
2019-02-03T06:36:39.953Z,10.60
2019-02-03T06:37:39.981Z,10.60
2019-02-03T06:38:40.002Z,11.10
2019-02-03T06:39:48.264Z,10.70
2019-02-03T06:40:40.053Z,9.40
2019-02-03T06:41:40.076Z,8.70
2019-02-03T06:42:40.101Z,8.30
2019-02-03T06:43:40.125Z,7.90
2019-02-03T06:44:40.150Z,8.60
2019-02-03T06:45:40.256Z,8.10
2019-02-03T06:46:40.198Z,7.70
2019-02-03T06:47:40.221Z,7.90
2019-02-03T06:48:40.248Z,7.90
2019-02-03T06:49:40.271Z,7.40
2019-02-03T06:50:40.295Z,7.90
2019-02-03T06:51:40.371Z,7.30
2019-02-03T06:52:40.345Z,8.00
2019-02-03T06:53:40.369Z,7.50
2019-02-03T06:54:40.392Z,6.50
2019-02-03T06:55:40.419Z,7.20
2019-02-03T06:56:40.442Z,7.30
2019-02-03T06:57:40.473Z,6.20
2019-02-03T06:58:40.491Z,6.10
2019-02-03T06:59:50.500Z,7.00
2019-02-03T07:00:40.539Z,7.10
2019-02-03T07:01:40.564Z,7.30
2019-02-03T07:02:40.587Z,6.70
2019-02-03T07:03:40.635Z,6.20
2019-02-03T07:04:40.637Z,6.60
2019-02-03T07:05:40.662Z,6.30
2019-02-03T07:06:40.686Z,6.80
2019-02-03T07:07:40.710Z,6.10
2019-02-03T07:08:40.734Z,6.60
2019-02-03T07:09:40.759Z,6.90
2019-02-03T07:10:40.783Z,6.80
2019-02-03T07:11:40.806Z,6.90
2019-02-03T07:12:40.830Z,6.70
2019-02-03T07:13:40.855Z,7.00
2019-02-03T07:14:40.879Z,6.50
2019-02-03T07:15:40.904Z,6.90
2019-02-03T07:16:42.157Z,7.40
2019-02-03T07:17:40.953Z,6.70
2019-02-03T07:18:40.976Z,7.20
2019-02-03T07:19:40.999Z,7.10
2019-02-03T07:20:41.026Z,7.70
2019-02-03T07:21:41.048Z,7.00
2019-02-03T07:22:41.123Z,6.50
2019-02-03T07:23:41.099Z,7.10
2019-02-03T07:24:41.122Z,6.40
2019-02-03T07:25:41.145Z,6.00
2019-02-03T07:26:41.169Z,6.40
2019-02-03T07:27:41.194Z,5.60
2019-02-03T07:28:41.218Z,5.20
2019-02-03T07:29:41.242Z,5.60
2019-02-03T07:30:41.361Z,5.20
2019-02-03T07:31:41.290Z,5.60
2019-02-03T07:32:41.316Z,5.40
2019-02-03T07:33:41.344Z,5.90
2019-02-03T07:34:41.364Z,5.80
2019-02-03T07:35:41.387Z,5.50
2019-02-03T07:36:41.412Z,6.00
2019-02-03T07:37:41.436Z,6.10
2019-02-03T07:38:41.460Z,5.90
2019-02-03T07:39:41.484Z,6.80
2019-02-03T07:40:41.508Z,7.00
2019-02-03T07:41:41.532Z,7.20
2019-02-03T07:42:41.558Z,7.20
2019-02-03T07:43:41.581Z,7.20
2019-02-03T07:44:41.605Z,7.20
2019-02-03T07:45:41.634Z,8.40
2019-02-03T07:46:41.655Z,8.50
2019-02-03T07:47:41.677Z,8.90
2019-02-03T07:48:41.702Z,8.00
2019-02-03T07:49:41.727Z,11.70
2019-02-03T07:50:41.751Z,12.60
2019-02-03T07:51:41.774Z,13.80
2019-02-03T07:52:41.799Z,12.10
2019-02-03T07:53:41.823Z,11.40
2019-02-03T07:54:41.847Z,13.40
2019-02-03T07:55:41.872Z,11.40
2019-02-03T07:56:41.903Z,11.60
2019-02-03T07:57:41.947Z,17.50
2019-02-03T07:58:41.943Z,20.20
2019-02-03T07:59:41.969Z,17.70
2019-02-03T08:00:41.996Z,19.00
2019-02-03T08:01:42.016Z,18.50
2019-02-03T08:02:42.039Z,19.50
2019-02-03T08:03:42.065Z,19.90
2019-02-03T08:04:42.089Z,20.40
2019-02-03T08:05:42.116Z,21.00
2019-02-03T08:06:42.137Z,23.50
2019-02-03T08:07:42.162Z,23.40
2019-02-03T08:08:42.186Z,24.30
2019-02-03T08:09:42.211Z,24.20
2019-02-03T08:10:42.234Z,24.70
2019-02-03T08:11:42.258Z,25.70
2019-02-03T08:12:42.282Z,26.40
2019-02-03T08:13:43.759Z,25.30
2019-02-03T08:14:42.329Z,26.50
2019-02-03T08:15:42.355Z,28.90
2019-02-03T08:16:42.380Z,29.30
2019-02-03T08:17:42.403Z,29.80
2019-02-03T08:18:42.429Z,28.30
2019-02-03T08:19:42.453Z,29.90
2019-02-03T08:20:42.476Z,29.90
2019-02-03T08:21:42.501Z,29.70
2019-02-03T08:22:42.523Z,31.50
2019-02-03T08:23:42.547Z,31.40
2019-02-03T08:24:42.572Z,31.60
2019-02-03T08:25:42.598Z,32.10
2019-02-03T08:26:42.624Z,32.70
2019-02-03T08:27:42.644Z,34.90
2019-02-03T08:28:42.669Z,32.70
2019-02-03T08:29:42.691Z,32.40
2019-02-03T08:30:42.716Z,32.10
2019-02-03T08:31:42.746Z,34.00
2019-02-03T08:32:42.765Z,32.60
2019-02-03T08:33:42.792Z,33.30
2019-02-03T08:34:42.812Z,33.30
2019-02-03T08:35:42.837Z,31.20
2019-02-03T08:36:42.862Z,33.20
2019-02-03T08:37:42.886Z,33.90
2019-02-03T08:38:42.908Z,33.90
2019-02-03T08:39:42.934Z,32.60
2019-02-03T08:40:42.972Z,33.30
2019-02-03T08:41:42.982Z,32.40
2019-02-03T08:42:43.024Z,29.70
2019-02-03T08:43:43.031Z,32.40
2019-02-03T08:44:43.055Z,33.10
2019-02-03T08:45:43.080Z,32.20
2019-02-03T08:46:43.103Z,33.10
2019-02-03T08:47:45.264Z,34.00
2019-02-03T08:48:43.152Z,32.20
2019-02-03T08:49:43.177Z,33.70
2019-02-03T08:50:43.199Z,32.80
2019-02-03T08:51:43.223Z,29.90
2019-02-03T08:52:43.249Z,30.80
2019-02-03T08:53:43.272Z,30.40
2019-02-03T08:54:56.836Z,31.10
2019-02-03T08:55:43.319Z,30.30
2019-02-03T08:56:43.344Z,30.50
2019-02-03T08:57:43.370Z,30.60
2019-02-03T08:58:43.393Z,30.20
2019-02-03T08:59:43.420Z,32.80
2019-02-03T09:00:43.496Z,33.00
2019-02-03T09:01:43.479Z,32.50
2019-02-03T09:02:43.493Z,31.70
2019-02-03T09:03:43.601Z,31.80
2019-02-03T09:04:43.545Z,32.60
2019-02-03T09:05:43.617Z,33.10
2019-02-03T09:06:43.589Z,33.00
2019-02-03T09:07:43.612Z,33.80
2019-02-03T09:08:43.637Z,33.90
2019-02-03T09:09:43.660Z,35.70
2019-02-03T09:10:48.745Z,33.70
2019-02-03T09:11:43.708Z,34.50
2019-02-03T09:12:43.733Z,33.00
2019-02-03T09:13:43.756Z,33.20
2019-02-03T09:14:43.781Z,30.90
2019-02-03T09:15:43.805Z,30.60
2019-02-03T09:16:43.830Z,32.20
2019-02-03T09:17:43.854Z,32.60
2019-02-03T09:18:43.879Z,31.70
2019-02-03T09:19:43.901Z,31.10
2019-02-03T09:20:43.927Z,29.90
2019-02-03T09:21:43.951Z,29.50
2019-02-03T09:22:43.977Z,32.10
2019-02-03T09:23:44.001Z,27.90
2019-02-03T09:24:44.026Z,29.60
2019-02-03T09:25:44.049Z,29.20
2019-02-03T09:26:44.073Z,30.40
2019-02-03T09:27:44.098Z,30.80
2019-02-03T09:28:44.123Z,30.40
2019-02-03T09:29:44.149Z,27.70
2019-02-03T09:30:44.174Z,29.60
2019-02-03T09:31:44.195Z,29.80
2019-02-03T09:32:44.221Z,28.40
2019-02-03T09:33:44.250Z,29.60
2019-02-03T09:34:44.268Z,30.20
2019-02-03T09:35:44.295Z,28.90
2019-02-03T09:36:44.320Z,29.30
2019-02-03T09:37:44.345Z,29.30
2019-02-03T09:38:44.367Z,29.40
2019-02-03T09:39:44.391Z,29.70
2019-02-03T09:40:44.536Z,30.10
2019-02-03T09:41:44.444Z,29.50
2019-02-03T09:42:47.054Z,29.60
2019-02-03T09:43:44.491Z,31.20
2019-02-03T09:44:44.515Z,31.40
2019-02-03T09:45:44.540Z,31.70
2019-02-03T09:46:44.563Z,27.70
2019-02-03T09:47:44.599Z,29.20
2019-02-03T09:48:44.613Z,30.20
2019-02-03T09:49:44.639Z,31.20
2019-02-03T09:50:44.663Z,30.80
2019-02-03T09:51:44.686Z,30.40
2019-02-03T09:52:44.711Z,30.00
2019-02-03T09:53:44.735Z,31.10
2019-02-03T09:54:44.761Z,28.30
2019-02-03T09:55:44.785Z,26.60
2019-02-03T09:56:44.810Z,26.80
2019-02-03T09:57:44.838Z,25.60
2019-02-03T09:58:44.859Z,26.60
2019-02-03T09:59:44.884Z,27.30
2019-02-03T10:00:44.909Z,28.20
2019-02-03T10:01:44.934Z,27.80
2019-02-03T10:02:44.958Z,25.50
2019-02-03T10:03:44.982Z,25.60
2019-02-03T10:04:45.013Z,27.20
2019-02-03T10:05:45.034Z,26.30
2019-02-03T10:06:45.059Z,25.80
2019-02-03T10:07:45.083Z,27.10
2019-02-03T10:08:45.107Z,25.60
2019-02-03T10:09:45.135Z,26.00
2019-02-03T10:10:45.159Z,27.50
2019-02-03T10:11:45.182Z,27.50
2019-02-03T10:12:45.208Z,27.10
2019-02-03T10:13:45.232Z,26.00
2019-02-03T10:14:45.256Z,26.90
2019-02-03T10:15:45.286Z,25.90
2019-02-03T10:16:47.497Z,25.70
2019-02-03T10:17:45.331Z,25.30
2019-02-03T10:18:45.356Z,23.50
2019-02-03T10:19:45.387Z,23.90
2019-02-03T10:20:45.406Z,25.40
2019-02-03T10:21:45.432Z,25.10
2019-02-03T10:22:45.454Z,24.20
2019-02-03T10:23:45.479Z,24.20
2019-02-03T10:24:45.506Z,24.20
2019-02-03T10:25:45.533Z,25.90
2019-02-03T10:26:45.556Z,26.30
2019-02-03T10:27:45.581Z,24.00
2019-02-03T10:28:46.680Z,24.90
2019-02-03T10:29:45.632Z,24.60
2019-02-03T10:30:45.657Z,24.50
2019-02-03T10:31:45.682Z,23.10
2019-02-03T10:32:45.709Z,23.40
2019-02-03T10:33:45.733Z,23.40
2019-02-03T10:34:45.756Z,24.20
2019-02-03T10:35:45.785Z,23.00
2019-02-03T10:36:45.810Z,23.50
2019-02-03T10:37:45.837Z,22.60
2019-02-03T10:38:45.860Z,23.10
2019-02-03T10:39:45.887Z,23.00
2019-02-03T10:40:45.914Z,22.40
2019-02-03T10:41:45.937Z,23.70
2019-02-03T10:42:45.961Z,23.50
2019-02-03T10:43:45.994Z,22.70
2019-02-03T10:44:46.013Z,22.50
2019-02-03T10:45:46.039Z,22.60
2019-02-03T10:46:46.064Z,21.80
2019-02-03T10:47:46.090Z,21.90
2019-02-03T10:48:46.116Z,21.90
2019-02-03T10:49:46.715Z,22.20
2019-02-03T10:50:46.167Z,20.90
2019-02-03T10:51:46.193Z,20.90
2019-02-03T10:52:46.220Z,20.20
2019-02-03T10:53:46.247Z,19.70
2019-02-03T10:54:46.267Z,20.10
2019-02-03T10:55:46.294Z,21.00
2019-02-03T10:56:46.321Z,21.20
2019-02-03T10:57:46.345Z,19.20
2019-02-03T10:58:46.371Z,19.80
2019-02-03T10:59:46.397Z,20.00
2019-02-03T11:00:46.423Z,19.70
2019-02-03T11:01:46.449Z,19.50
2019-02-03T11:02:46.476Z,19.40
2019-02-03T11:03:46.502Z,18.60
2019-02-03T11:04:46.527Z,20.20
2019-02-03T11:05:46.555Z,19.50
2019-02-03T11:06:46.578Z,18.80
2019-02-03T11:07:46.602Z,20.30
2019-02-03T11:08:46.628Z,18.70
2019-02-03T11:09:46.653Z,19.70
2019-02-03T11:10:46.680Z,19.20
2019-02-03T11:11:46.716Z,20.30
2019-02-03T11:12:46.731Z,19.10
2019-02-03T11:13:46.756Z,21.20
2019-02-03T11:14:46.782Z,18.00
2019-02-03T11:15:46.808Z,17.00
2019-02-03T11:16:46.834Z,17.20
2019-02-03T11:17:46.859Z,19.40
2019-02-03T11:18:46.885Z,18.60
2019-02-03T11:19:46.909Z,16.70
2019-02-03T11:20:46.937Z,16.60
2019-02-03T11:21:46.961Z,16.90
2019-02-03T11:22:46.988Z,16.20
2019-02-03T11:23:47.011Z,18.00
2019-02-03T11:24:47.037Z,18.70
2019-02-03T11:25:47.071Z,16.90
2019-02-03T11:26:47.088Z,17.10
2019-02-03T11:27:47.113Z,18.00
2019-02-03T11:28:47.140Z,17.50
2019-02-03T11:29:47.165Z,16.40
2019-02-03T11:30:47.188Z,15.40
2019-02-03T11:31:47.214Z,15.70
2019-02-03T11:32:47.242Z,17.80
2019-02-03T11:33:47.265Z,16.70
2019-02-03T11:34:47.290Z,16.90
2019-02-03T11:35:47.316Z,18.30
2019-02-03T11:36:47.341Z,18.50
2019-02-03T11:37:47.366Z,18.40
2019-02-03T11:38:47.392Z,17.10
2019-02-03T11:39:47.454Z,17.20
2019-02-03T11:40:47.444Z,17.10
2019-02-03T11:41:49.488Z,17.40
2019-02-03T11:42:47.492Z,17.20
2019-02-03T11:43:47.520Z,17.10
2019-02-03T11:44:47.543Z,17.30
2019-02-03T11:45:47.568Z,18.60
2019-02-03T11:46:47.593Z,17.20
2019-02-03T11:47:47.620Z,16.60
2019-02-03T11:48:47.649Z,16.20
2019-02-03T11:49:47.669Z,17.00
2019-02-03T11:50:47.698Z,16.20
2019-02-03T11:51:47.719Z,17.70
2019-02-03T11:52:47.743Z,18.30
2019-02-03T11:53:47.769Z,19.20
2019-02-03T11:54:47.793Z,17.80
2019-02-03T11:55:47.819Z,18.40
2019-02-03T11:56:47.845Z,16.10
2019-02-03T11:57:47.869Z,15.90
2019-02-03T11:58:47.894Z,15.40
2019-02-03T11:59:47.919Z,16.20
2019-02-03T12:00:47.946Z,17.00
2019-02-03T12:01:47.970Z,15.80
2019-02-03T12:02:47.994Z,17.40
2019-02-03T12:03:48.020Z,17.70
2019-02-03T12:04:48.046Z,17.10
2019-02-03T12:05:48.071Z,16.80
2019-02-03T12:06:48.095Z,15.90
2019-02-03T12:07:48.122Z,15.20
2019-02-03T12:08:48.146Z,16.50
2019-02-03T12:09:48.171Z,16.40
2019-02-03T12:10:48.197Z,15.90
2019-02-03T12:12:00.392Z,14.70
2019-02-03T12:12:48.246Z,15.30
2019-02-03T12:13:48.273Z,15.60
2019-02-03T12:14:48.298Z,15.10
2019-02-03T12:15:48.336Z,15.10
2019-02-03T12:16:48.348Z,14.80
2019-02-03T12:17:48.374Z,15.20
2019-02-03T12:18:48.398Z,15.80
2019-02-03T12:19:48.423Z,15.10
2019-02-03T12:20:48.449Z,16.80
2019-02-03T12:21:48.474Z,17.30
2019-02-03T12:22:48.500Z,16.10
2019-02-03T12:23:48.525Z,16.60
2019-02-03T12:24:48.551Z,15.70
2019-02-03T12:25:48.576Z,16.10
2019-02-03T12:26:48.600Z,17.00
2019-02-03T12:27:48.626Z,16.70
2019-02-03T12:28:48.652Z,15.30
2019-02-03T12:29:48.679Z,16.00
2019-02-03T12:30:48.702Z,16.60
2019-02-03T12:31:48.728Z,18.20
2019-02-03T12:32:48.754Z,16.40
2019-02-03T12:33:48.781Z,15.90
2019-02-03T12:34:48.807Z,15.50
2019-02-03T12:35:48.834Z,15.90
2019-02-03T12:36:48.859Z,16.90
2019-02-03T12:37:48.886Z,16.50
2019-02-03T12:38:48.911Z,15.60
2019-02-03T12:39:48.984Z,16.20
2019-02-03T12:40:48.962Z,16.50
2019-02-03T12:41:48.995Z,16.70
2019-02-03T12:42:49.033Z,15.60
2019-02-03T12:43:49.039Z,16.30
2019-02-03T12:44:49.066Z,16.50
2019-02-03T12:45:49.092Z,14.80
2019-02-03T12:46:49.118Z,16.70
2019-02-03T12:47:49.144Z,16.70
2019-02-03T12:48:49.170Z,16.70
2019-02-03T12:49:49.196Z,17.00
2019-02-03T12:50:49.222Z,16.70
2019-02-03T12:51:49.249Z,16.90
2019-02-03T12:52:49.275Z,15.80
2019-02-03T12:53:49.300Z,16.60
2019-02-03T12:54:49.326Z,17.10
2019-02-03T12:55:49.359Z,18.30
2019-02-03T12:56:49.378Z,17.80
2019-02-03T12:57:49.405Z,17.60
2019-02-03T12:58:49.430Z,16.60